createdAt,value
2018-09-06T00:01:58.468Z,16.17
2018-09-06T00:04:27.576Z,14.60
2018-09-06T00:06:56.686Z,10.53
2018-09-06T00:09:25.795Z,11.10
2018-09-06T00:11:54.904Z,11.77
2018-09-06T00:14:24.034Z,10.67
2018-09-06T00:16:53.173Z,11.90
2018-09-06T00:19:22.352Z,17.00
2018-09-06T00:21:51.525Z,11.47
2018-09-06T00:24:20.673Z,13.60
2018-09-06T00:26:49.837Z,11.00
2018-09-06T00:29:18.979Z,11.17
2018-09-06T00:31:48.047Z,11.77
2018-09-06T00:34:17.138Z,12.87
2018-09-06T00:36:46.370Z,13.90
2018-09-06T00:39:15.693Z,13.33
2018-09-06T00:41:44.784Z,13.77
2018-09-06T00:44:13.926Z,11.77
2018-09-06T00:46:43.121Z,10.57
2018-09-06T00:49:12.270Z,12.47
2018-09-06T00:51:41.394Z,13.10
2018-09-06T00:54:10.525Z,11.30
2018-09-06T00:56:39.680Z,12.27
2018-09-06T00:59:08.852Z,16.37
2018-09-06T01:01:44.249Z,10.63
2018-09-06T01:04:13.426Z,11.53
2018-09-06T01:06:42.603Z,15.43
2018-09-06T01:09:11.744Z,13.97
2018-09-06T01:11:40.886Z,14.03
2018-09-06T01:14:10.043Z,14.60
2018-09-06T01:16:39.155Z,11.40
2018-09-06T01:19:08.363Z,13.60
2018-09-06T01:21:37.475Z,12.47
2018-09-06T01:24:07.099Z,11.90
2018-09-06T01:26:36.242Z,11.80
2018-09-06T01:29:05.388Z,13.10
2018-09-06T01:31:34.538Z,12.40
2018-09-06T01:34:03.634Z,15.20
2018-09-06T01:36:38.123Z,20.87
2018-09-06T01:39:10.137Z,15.07
2018-09-06T01:41:39.233Z,14.03
2018-09-06T01:44:08.313Z,11.67
2018-09-06T01:46:38.408Z,14.03
2018-09-06T01:49:08.354Z,11.80
2018-09-06T01:51:37.559Z,12.57
2018-09-06T01:54:06.659Z,12.53
2018-09-06T01:56:35.814Z,12.53
2018-09-06T01:59:05.023Z,23.43
2018-09-06T02:01:34.171Z,15.47
2018-09-06T02:04:03.280Z,16.07
2018-09-06T02:06:32.381Z,13.93
2018-09-06T02:09:01.512Z,14.33
2018-09-06T02:11:30.607Z,14.10
2018-09-06T02:13:59.688Z,13.23
2018-09-06T02:16:28.834Z,16.10
2018-09-06T02:18:57.955Z,15.60
2018-09-06T02:21:27.107Z,12.60
2018-09-06T02:23:56.308Z,16.87
2018-09-06T02:26:25.398Z,11.30
2018-09-06T02:28:54.540Z,13.10
2018-09-06T02:31:23.682Z,12.70
2018-09-06T02:33:52.906Z,13.03
2018-09-06T02:36:22.061Z,12.50
2018-09-06T02:38:51.274Z,14.87
2018-09-06T02:41:20.447Z,13.80
2018-09-06T02:43:49.574Z,14.37
2018-09-06T02:46:18.763Z,12.93
2018-09-06T02:48:47.887Z,14.53
2018-09-06T02:51:19.306Z,13.93
2018-09-06T02:53:48.475Z,15.73
2018-09-06T02:56:18.276Z,13.47
2018-09-06T02:58:47.482Z,22.93
2018-09-06T03:01:16.633Z,17.87
2018-09-06T03:03:45.750Z,14.07
2018-09-06T03:06:14.928Z,16.67
2018-09-06T03:08:43.981Z,14.33
2018-09-06T03:11:18.292Z,26.33
2018-09-06T03:13:47.476Z,14.20
2018-09-06T03:16:16.685Z,13.93
2018-09-06T03:18:45.808Z,15.20
2018-09-06T03:21:14.980Z,15.87
2018-09-06T03:23:44.229Z,15.20
2018-09-06T03:26:20.212Z,16.77
2018-09-06T03:28:51.034Z,17.50
2018-09-06T03:31:20.136Z,16.10
2018-09-06T03:33:49.227Z,15.93
2018-09-06T03:36:18.374Z,18.20
2018-09-06T03:38:47.468Z,20.23
2018-09-06T03:41:16.573Z,16.73
2018-09-06T03:43:45.726Z,16.73
2018-09-06T03:46:14.854Z,16.03
2018-09-06T03:48:43.980Z,16.40
2018-09-06T03:51:13.156Z,16.23
2018-09-06T03:53:42.321Z,18.03
2018-09-06T03:56:11.460Z,18.80
2018-09-06T03:58:40.618Z,17.37
2018-09-06T04:01:09.791Z,19.83
2018-09-06T04:03:38.974Z,20.13
2018-09-06T04:06:08.093Z,20.60
2018-09-06T04:08:37.229Z,25.20
2018-09-06T04:11:06.435Z,20.30
2018-09-06T04:13:35.581Z,18.90
2018-09-06T04:16:04.720Z,18.77
2018-09-06T04:18:33.931Z,22.60
2018-09-06T04:21:03.131Z,24.33
2018-09-06T04:23:32.361Z,21.17
2018-09-06T04:26:01.587Z,24.40
2018-09-06T04:28:30.708Z,21.63
2018-09-06T04:30:59.895Z,20.63
2018-09-06T04:33:29.059Z,25.93
2018-09-06T04:35:58.203Z,25.53
2018-09-06T04:38:27.346Z,18.40
2018-09-06T04:40:56.504Z,23.90
2018-09-06T04:43:25.677Z,21.00
2018-09-06T04:45:54.847Z,20.87
2018-09-06T04:48:23.976Z,20.37
2018-09-06T04:50:53.123Z,23.47
2018-09-06T04:53:22.311Z,25.63
2018-09-06T04:55:51.603Z,25.80
2018-09-06T04:58:20.791Z,26.37
2018-09-06T05:00:49.933Z,20.00
2018-09-06T05:03:28.717Z,24.13
2018-09-06T05:05:57.865Z,22.40
2018-09-06T05:08:34.302Z,20.97
2018-09-06T05:11:03.604Z,22.87
2018-09-06T05:13:32.775Z,22.47
2018-09-06T05:16:01.944Z,21.27
2018-09-06T05:18:31.106Z,26.20
2018-09-06T05:21:00.284Z,21.00
2018-09-06T05:23:29.482Z,23.63
2018-09-06T05:25:58.630Z,24.27
2018-09-06T05:28:27.791Z,22.57
2018-09-06T05:30:57.008Z,19.77
2018-09-06T05:33:26.141Z,22.03
2018-09-06T05:35:55.353Z,20.30
2018-09-06T05:38:24.488Z,20.23
2018-09-06T05:40:53.611Z,32.00
2018-09-06T05:43:22.745Z,22.27
2018-09-06T05:45:51.944Z,20.17
2018-09-06T05:48:21.115Z,19.33
2018-09-06T05:50:50.216Z,22.77
2018-09-06T05:53:19.404Z,19.90
2018-09-06T05:55:48.541Z,22.57
2018-09-06T05:58:17.659Z,18.73
2018-09-06T06:00:48.163Z,19.50
2018-09-06T06:03:17.346Z,18.90
2018-09-06T06:05:46.493Z,18.90
2018-09-06T06:08:32.929Z,18.80
2018-09-06T06:11:02.088Z,19.27
2018-09-06T06:13:31.213Z,17.50
2018-09-06T06:16:00.466Z,18.13
2018-09-06T06:18:29.549Z,16.80
2018-09-06T06:20:58.737Z,16.60
2018-09-06T06:23:27.926Z,17.73
2018-09-06T06:25:57.096Z,19.07
2018-09-06T06:28:26.405Z,18.37
2018-09-06T06:30:55.579Z,19.93
2018-09-06T06:33:24.774Z,18.40
2018-09-06T06:35:53.914Z,20.60
2018-09-06T06:38:23.020Z,19.60
2018-09-06T06:40:52.201Z,22.60
2018-09-06T06:43:21.409Z,15.97
2018-09-06T06:45:50.602Z,17.60
2018-09-06T06:48:19.760Z,17.90
2018-09-06T06:50:48.934Z,17.87
2018-09-06T06:53:18.145Z,15.17
2018-09-06T06:55:47.350Z,17.33
2018-09-06T06:58:16.516Z,14.60
2018-09-06T07:00:45.673Z,17.30
2018-09-06T07:03:15.359Z,17.13
2018-09-06T07:05:44.696Z,15.20
2018-09-06T07:08:13.797Z,18.80
2018-09-06T07:10:42.982Z,18.73
2018-09-06T07:13:12.518Z,32.10
2018-09-06T07:15:41.629Z,21.27
2018-09-06T07:18:10.830Z,25.13
2018-09-06T07:20:39.970Z,27.13
2018-09-06T07:23:09.154Z,28.03
2018-09-06T07:25:38.376Z,25.00
2018-09-06T07:28:07.578Z,32.87
2018-09-06T07:30:36.928Z,26.13
2018-09-06T07:33:06.103Z,25.50
2018-09-06T07:35:35.328Z,26.63
2018-09-06T07:38:04.685Z,20.47
2018-09-06T07:40:33.820Z,25.77
2018-09-06T07:43:03.992Z,31.13
2018-09-06T07:45:33.168Z,19.50
2018-09-06T07:48:02.356Z,17.27
2018-09-06T07:50:31.657Z,16.10
2018-09-06T07:53:00.878Z,16.20
2018-09-06T07:55:30.003Z,17.03
2018-09-06T07:57:59.160Z,15.97
2018-09-06T08:00:28.321Z,16.80
2018-09-06T08:02:57.580Z,14.97
2018-09-06T08:05:26.750Z,19.80
2018-09-06T08:07:55.904Z,20.07
2018-09-06T08:10:25.092Z,30.03
2018-09-06T08:12:54.188Z,19.93
2018-09-06T08:15:23.301Z,29.50
2018-09-06T08:17:52.489Z,27.93
2018-09-06T08:20:21.646Z,19.00
2018-09-06T08:22:50.809Z,16.03
2018-09-06T08:25:19.947Z,15.97
2018-09-06T08:27:49.142Z,22.80
2018-09-06T08:30:18.346Z,23.10
2018-09-06T08:32:47.477Z,13.77
2018-09-06T08:35:16.623Z,17.57
2018-09-06T08:37:45.818Z,18.37
2018-09-06T08:40:14.960Z,13.03
2018-09-06T08:42:44.150Z,19.07
2018-09-06T08:45:13.505Z,14.70
2018-09-06T08:47:42.752Z,18.63
2018-09-06T08:50:11.916Z,14.40
2018-09-06T08:52:41.103Z,20.30
2018-09-06T08:55:10.386Z,15.37
2018-09-06T08:57:39.517Z,20.70
2018-09-06T09:00:08.663Z,14.77
2018-09-06T09:02:37.783Z,12.80
2018-09-06T09:05:07.057Z,16.17
2018-09-06T09:07:36.309Z,14.37
2018-09-06T09:10:05.902Z,16.97
2018-09-06T09:12:35.142Z,18.60
2018-09-06T09:15:04.232Z,16.63
2018-09-06T09:17:33.375Z,17.80
2018-09-06T09:20:02.535Z,12.17
2018-09-06T09:22:31.862Z,11.20
2018-09-06T09:25:01.021Z,12.53
2018-09-06T09:27:30.213Z,11.73
2018-09-06T09:29:59.332Z,6.60
2018-09-06T09:32:28.500Z,6.37
2018-09-06T09:34:57.797Z,8.83
2018-09-06T09:37:26.979Z,6.40
2018-09-06T09:39:56.141Z,9.00
2018-09-06T09:42:25.297Z,6.63
2018-09-06T09:44:54.436Z,6.20
2018-09-06T09:49:52.344Z,8.93
2018-09-06T09:52:23.036Z,8.23
2018-09-06T09:54:52.344Z,10.20
2018-09-06T09:57:21.471Z,5.10
2018-09-06T09:59:50.571Z,7.70
2018-09-06T10:02:25.077Z,5.57
2018-09-06T10:05:00.385Z,5.80
2018-09-06T10:07:34.998Z,8.23
2018-09-06T10:10:04.171Z,6.33
2018-09-06T10:12:33.275Z,13.30
2018-09-06T10:15:02.456Z,6.03
2018-09-06T10:17:31.641Z,9.10
2018-09-06T10:20:00.763Z,5.10
2018-09-06T10:22:29.913Z,8.57
2018-09-06T10:24:59.169Z,4.60
2018-09-06T10:27:28.332Z,5.27
2018-09-06T10:29:57.498Z,8.93
2018-09-06T10:32:26.691Z,5.30
2018-09-06T10:34:55.900Z,4.63
2018-09-06T10:37:25.439Z,4.47
2018-09-06T10:39:54.675Z,7.30
2018-09-06T10:42:23.753Z,3.77
2018-09-06T10:44:52.942Z,8.83
2018-09-06T10:47:22.150Z,5.80
2018-09-06T10:49:51.356Z,4.70
2018-09-06T10:52:20.528Z,5.43
2018-09-06T10:54:49.678Z,5.20
2018-09-06T10:57:18.840Z,12.60
2018-09-06T10:59:48.023Z,7.43
2018-09-06T11:02:17.189Z,6.50
2018-09-06T11:04:46.307Z,4.50
2018-09-06T11:07:15.534Z,4.10
2018-09-06T11:09:44.731Z,4.37
2018-09-06T11:12:13.886Z,10.70
2018-09-06T11:14:43.038Z,5.70
2018-09-06T11:17:12.231Z,8.33
2018-09-06T11:19:41.376Z,8.10
2018-09-06T11:22:10.863Z,6.30
2018-09-06T11:24:39.857Z,6.80
2018-09-06T11:27:08.968Z,6.90
2018-09-06T11:29:38.124Z,7.40
2018-09-06T11:32:07.767Z,10.93
2018-09-06T11:34:36.951Z,10.37
2018-09-06T11:37:06.104Z,10.60
2018-09-06T11:39:35.244Z,12.90
2018-09-06T11:42:04.388Z,14.47
2018-09-06T11:44:33.515Z,6.60
2018-09-06T11:47:02.841Z,13.43
2018-09-06T11:49:32.076Z,8.17
2018-09-06T11:52:01.218Z,7.83
2018-09-06T11:54:30.424Z,7.10
2018-09-06T11:56:59.590Z,13.70
2018-09-06T11:59:28.761Z,8.33
2018-09-06T12:01:57.997Z,6.93
2018-09-06T12:04:27.098Z,6.67
2018-09-06T12:06:56.194Z,7.43
2018-09-06T12:09:25.455Z,6.50
2018-09-06T12:11:54.586Z,9.07
2018-09-06T12:14:23.788Z,19.10
2018-09-06T12:16:52.966Z,11.00
2018-09-06T12:19:22.213Z,11.87
2018-09-06T12:21:51.421Z,9.00
2018-09-06T12:24:20.739Z,7.70
2018-09-06T12:26:49.836Z,7.83
2018-09-06T12:29:18.988Z,12.97
2018-09-06T12:31:48.166Z,11.50
2018-09-06T12:34:17.335Z,7.17
2018-09-06T12:36:46.521Z,9.57
2018-09-06T12:39:15.668Z,7.10
2018-09-06T12:41:44.841Z,9.87
2018-09-06T12:44:13.974Z,13.70
2018-09-06T12:46:43.120Z,13.57
2018-09-06T12:49:12.312Z,12.77
2018-09-06T12:51:41.480Z,6.53
2018-09-06T12:54:10.607Z,16.60
2018-09-06T12:56:39.757Z,11.87
2018-09-06T12:59:09.068Z,7.40
2018-09-06T13:01:38.216Z,9.07
2018-09-06T13:04:07.520Z,9.53
2018-09-06T13:06:36.730Z,7.60
2018-09-06T13:09:07.499Z,9.03
2018-09-06T13:11:37.226Z,6.93
2018-09-06T13:14:06.479Z,9.93
2018-09-06T13:16:35.810Z,6.90
2018-09-06T13:19:05.120Z,7.40
2018-09-06T13:21:34.451Z,7.87
2018-09-06T13:24:03.706Z,14.47
2018-09-06T13:26:32.828Z,8.10
2018-09-06T13:29:01.947Z,11.23
2018-09-06T13:31:31.104Z,6.30
2018-09-06T13:34:00.306Z,6.13
2018-09-06T13:36:29.392Z,6.93
2018-09-06T13:38:58.596Z,11.23
2018-09-06T13:41:27.797Z,9.03
2018-09-06T13:43:56.928Z,6.70
2018-09-06T13:46:26.120Z,12.70
2018-09-06T13:48:55.219Z,7.80
2018-09-06T13:51:24.400Z,7.67
2018-09-06T13:53:53.518Z,10.63
2018-09-06T13:56:22.713Z,11.23
2018-09-06T13:58:51.862Z,7.93
2018-09-06T14:01:21.033Z,9.17
2018-09-06T14:03:50.251Z,7.73
2018-09-06T14:06:19.373Z,7.13
2018-09-06T14:08:51.508Z,10.33
2018-09-06T14:11:20.727Z,14.97
2018-09-06T14:13:49.907Z,11.60
2018-09-06T14:16:19.072Z,9.67
2018-09-06T14:18:48.241Z,8.43
2018-09-06T14:21:17.529Z,12.10
2018-09-06T14:23:46.709Z,7.13
2018-09-06T14:26:15.870Z,6.80
2018-09-06T14:28:45.007Z,6.60
2018-09-06T14:31:15.951Z,12.53
2018-09-06T14:33:45.102Z,11.73
2018-09-06T14:36:14.279Z,14.37
2018-09-06T14:38:44.082Z,7.40
2018-09-06T14:41:13.175Z,12.73
2018-09-06T14:43:42.311Z,9.40
2018-09-06T14:46:11.426Z,7.70
2018-09-06T14:48:40.636Z,10.27
2018-09-06T14:51:09.742Z,11.03
2018-09-06T14:53:38.903Z,17.07
2018-09-06T14:56:08.690Z,8.40
2018-09-06T14:58:37.922Z,16.40
2018-09-06T15:01:07.408Z,8.40
2018-09-06T15:03:36.579Z,10.23
2018-09-06T15:06:05.785Z,7.00
2018-09-06T15:08:34.963Z,10.83
2018-09-06T15:11:04.139Z,9.93
2018-09-06T15:13:34.879Z,7.03
2018-09-06T15:16:04.158Z,9.57
2018-09-06T15:18:33.411Z,7.27
2018-09-06T15:21:02.591Z,7.93
2018-09-06T15:23:31.799Z,10.67
2018-09-06T15:26:01.038Z,9.37
2018-09-06T15:28:30.197Z,9.90
2018-09-06T15:30:59.396Z,11.30
2018-09-06T15:33:28.592Z,12.13
2018-09-06T15:35:57.762Z,7.70
2018-09-06T15:38:27.165Z,9.70
2018-09-06T15:40:56.749Z,6.93
2018-09-06T15:43:26.026Z,11.13
2018-09-06T15:45:57.210Z,8.53
2018-09-06T15:48:26.542Z,14.53
2018-09-06T15:50:55.912Z,8.07
2018-09-06T15:53:25.097Z,9.80
2018-09-06T15:55:54.303Z,7.77
2018-09-06T15:58:23.619Z,8.37
2018-09-06T16:00:52.776Z,7.50
2018-09-06T16:03:22.032Z,10.77
2018-09-06T16:05:51.284Z,8.30
2018-09-06T16:08:20.559Z,7.07
2018-09-06T16:10:50.922Z,8.40
2018-09-06T16:13:20.251Z,8.90
2018-09-06T16:15:49.410Z,10.03
2018-09-06T16:18:18.531Z,8.47
2018-09-06T16:20:47.672Z,8.17
2018-09-06T16:23:16.953Z,14.03
2018-09-06T16:25:47.855Z,7.07
2018-09-06T16:28:17.093Z,9.60
2018-09-06T16:30:46.243Z,8.80
2018-09-06T16:33:15.397Z,9.10
2018-09-06T16:35:44.568Z,10.30
2018-09-06T16:38:13.701Z,12.53
2018-09-06T16:40:42.852Z,10.00
2018-09-06T16:43:12.244Z,8.67
2018-09-06T16:45:41.555Z,11.93
2018-09-06T16:48:10.812Z,9.03
2018-09-06T16:50:40.043Z,11.23
2018-09-06T16:53:09.201Z,8.10
2018-09-06T16:55:40.209Z,8.80
2018-09-06T16:58:09.332Z,9.10
2018-09-06T17:00:38.568Z,8.47
2018-09-06T17:03:07.745Z,7.60
2018-09-06T17:05:36.953Z,10.70
2018-09-06T17:08:06.118Z,10.83
2018-09-06T17:10:35.296Z,11.90
2018-09-06T17:13:04.532Z,13.77
2018-09-06T17:15:33.706Z,10.30
2018-09-06T17:18:02.816Z,8.67
2018-09-06T17:20:32.075Z,9.40
2018-09-06T17:23:01.270Z,10.50
2018-09-06T17:25:30.429Z,9.43
2018-09-06T17:27:59.630Z,8.77
2018-09-06T17:30:28.781Z,10.30
2018-09-06T17:33:01.060Z,11.60
2018-09-06T17:35:30.150Z,12.43
2018-09-06T17:37:59.359Z,12.90
2018-09-06T17:40:28.516Z,12.00
2018-09-06T17:42:58.802Z,12.80
2018-09-06T17:45:27.994Z,14.00
2018-09-06T17:47:57.196Z,12.13
2018-09-06T17:50:26.338Z,14.23
2018-09-06T17:52:55.485Z,20.80
2018-09-06T17:55:24.623Z,13.80
2018-09-06T17:57:53.808Z,11.13
2018-09-06T18:00:22.940Z,16.03
2018-09-06T18:02:52.075Z,12.93
2018-09-06T18:05:22.484Z,10.73
2018-09-06T18:07:51.594Z,11.70
2018-09-06T18:10:20.766Z,10.37
2018-09-06T18:12:49.931Z,7.63
2018-09-06T18:15:19.031Z,10.57
2018-09-06T18:17:48.301Z,11.60
2018-09-06T18:20:17.274Z,8.10
2018-09-06T18:22:46.437Z,12.13
2018-09-06T18:25:15.585Z,8.03
2018-09-06T18:27:44.727Z,7.63
2018-09-06T18:30:13.990Z,15.57
2018-09-06T18:32:43.173Z,7.70
2018-09-06T18:35:12.409Z,7.57
2018-09-06T18:37:41.663Z,9.03
2018-09-06T18:40:10.813Z,12.30
2018-09-06T18:42:39.971Z,9.60
2018-09-06T18:45:09.290Z,22.50
2018-09-06T18:47:38.606Z,19.47
2018-09-06T18:50:07.886Z,14.47
2018-09-06T18:52:37.030Z,10.87
2018-09-06T18:55:06.242Z,10.40
2018-09-06T18:57:35.401Z,12.10
2018-09-06T19:00:04.570Z,8.83
2018-09-06T19:02:33.769Z,9.83
2018-09-06T19:05:03.035Z,9.70
2018-09-06T19:07:32.296Z,18.70
2018-09-06T19:10:01.567Z,10.40
2018-09-06T19:12:30.799Z,16.13
2018-09-06T19:14:59.966Z,9.63
2018-09-06T19:17:35.847Z,8.83
2018-09-06T19:20:05.426Z,9.60
2018-09-06T19:22:34.533Z,10.10
2018-09-06T19:25:03.717Z,11.27
2018-09-06T19:27:32.889Z,7.97
2018-09-06T19:30:01.977Z,10.97
2018-09-06T19:32:31.182Z,11.20
2018-09-06T19:35:00.435Z,9.60
2018-09-06T19:37:29.674Z,8.67
2018-09-06T19:39:58.907Z,8.80
2018-09-06T19:42:28.031Z,9.70
2018-09-06T19:44:57.249Z,8.13
2018-09-06T19:47:27.399Z,8.30
2018-09-06T19:49:56.613Z,13.00
2018-09-06T19:52:25.886Z,8.37
2018-09-06T19:54:55.015Z,9.20
2018-09-06T19:57:24.121Z,8.70
2018-09-06T19:59:53.324Z,10.30
2018-09-06T20:02:22.913Z,10.00
2018-09-06T20:04:52.078Z,11.50
2018-09-06T20:07:21.239Z,13.20
2018-09-06T20:09:50.451Z,16.27
2018-09-06T20:12:19.645Z,10.70
2018-09-06T20:14:48.977Z,15.43
2018-09-06T20:17:18.160Z,20.60
2018-09-06T20:19:47.276Z,17.10
2018-09-06T20:22:16.877Z,13.00
2018-09-06T20:24:46.181Z,11.40
2018-09-06T20:27:15.738Z,13.37
2018-09-06T20:29:45.077Z,14.07
2018-09-06T20:32:14.364Z,15.57
2018-09-06T20:34:43.770Z,24.20
2018-09-06T20:37:12.998Z,15.70
2018-09-06T20:39:42.190Z,16.00
2018-09-06T20:42:11.351Z,15.77
2018-09-06T20:44:40.542Z,19.67
2018-09-06T20:47:09.990Z,14.23
2018-09-06T20:49:39.177Z,14.20
2018-09-06T20:52:08.380Z,17.57
2018-09-06T20:54:37.534Z,22.00
2018-09-06T20:57:06.741Z,21.90
2018-09-06T20:59:36.013Z,21.27
2018-09-06T21:02:10.609Z,27.13
2018-09-06T21:04:40.739Z,27.30
2018-09-06T21:07:09.972Z,26.27
2018-09-06T21:09:39.162Z,24.80
2018-09-06T21:12:08.434Z,27.73
2018-09-06T21:14:37.675Z,25.10
2018-09-06T21:17:06.865Z,35.90
2018-09-06T21:19:38.329Z,22.60
2018-09-06T21:22:07.532Z,21.87
2018-09-06T21:24:36.827Z,22.03
2018-09-06T21:27:06.337Z,23.03
2018-09-06T21:29:35.558Z,18.10
2018-09-06T21:32:05.222Z,27.53
2018-09-06T21:34:34.969Z,20.10
2018-09-06T21:37:04.254Z,20.67
2018-09-06T21:39:33.425Z,18.93
2018-09-06T21:42:02.624Z,23.63
2018-09-06T21:44:31.889Z,23.00
2018-09-06T21:47:01.044Z,20.43
2018-09-06T21:49:30.329Z,19.50
2018-09-06T21:51:59.485Z,22.00
2018-09-06T21:54:28.682Z,20.70
2018-09-06T21:56:57.876Z,18.53
2018-09-06T21:59:27.063Z,20.30
2018-09-06T22:01:56.268Z,21.40
2018-09-06T22:04:25.478Z,20.10
2018-09-06T22:06:54.690Z,19.67
2018-09-06T22:09:23.932Z,21.13
2018-09-06T22:11:53.200Z,20.87
2018-09-06T22:14:22.376Z,20.30
2018-09-06T22:16:51.554Z,21.70
2018-09-06T22:19:20.685Z,20.33
2018-09-06T22:21:51.383Z,22.63
2018-09-06T22:24:20.556Z,22.83
2018-09-06T22:26:49.758Z,23.40
2018-09-06T22:29:18.999Z,20.40
2018-09-06T22:31:48.219Z,27.50
2018-09-06T22:34:17.434Z,21.27
2018-09-06T22:36:46.623Z,23.77
2018-09-06T22:39:15.969Z,25.87
2018-09-06T22:41:45.218Z,21.37
2018-09-06T22:44:17.358Z,21.10
2018-09-06T22:46:46.515Z,21.73
2018-09-06T22:49:15.700Z,24.50
2018-09-06T22:51:44.892Z,20.33
2018-09-06T22:54:14.106Z,23.33
2018-09-06T22:56:43.265Z,23.10
2018-09-06T22:59:12.465Z,25.77
2018-09-06T23:01:41.668Z,26.20
2018-09-06T23:04:10.860Z,22.80
2018-09-06T23:06:40.032Z,22.60
2018-09-06T23:09:09.570Z,22.60
2018-09-06T23:11:38.787Z,23.23
2018-09-06T23:14:08.052Z,22.47
2018-09-06T23:16:37.228Z,24.40
2018-09-06T23:19:06.561Z,23.83
2018-09-06T23:21:35.721Z,23.70
2018-09-06T23:24:04.857Z,24.43
2018-09-06T23:26:34.125Z,26.33
2018-09-06T23:29:03.454Z,32.00
2018-09-06T23:31:32.636Z,28.27
2018-09-06T23:34:01.774Z,28.77
2018-09-06T23:36:30.958Z,29.23
2018-09-06T23:39:00.134Z,28.70
2018-09-06T23:41:32.359Z,30.30
2018-09-06T23:44:01.542Z,29.53
2018-09-06T23:46:30.715Z,31.47
2018-09-06T23:48:59.971Z,32.93
2018-09-06T23:51:29.226Z,31.40
2018-09-06T23:53:58.372Z,33.13
2018-09-06T23:56:27.544Z,33.07
2018-09-06T23:58:56.749Z,33.37
